createdAt,value
2018-12-22T00:00:14.191Z,1.19
2018-12-22T00:06:09.197Z,0.92
2018-12-22T00:12:04.210Z,1.4
2018-12-22T00:17:59.219Z,1.23
2018-12-22T00:23:54.214Z,0.83
2018-12-22T00:29:49.211Z,0.95
2018-12-22T00:35:44.209Z,1.2
2018-12-22T00:41:39.212Z,1.24
2018-12-22T00:47:34.234Z,1.11
2018-12-22T00:53:29.229Z,1.23
2018-12-22T00:59:24.245Z,0.9
2018-12-22T01:05:19.243Z,1.06
2018-12-22T01:11:14.248Z,1.18
2018-12-22T01:17:09.264Z,1.49
2018-12-22T01:23:04.235Z,1.42
2018-12-22T01:28:59.294Z,1.28
2018-12-22T01:34:54.322Z,1.4
2018-12-22T01:40:49.248Z,1.11
2018-12-22T01:46:44.281Z,1.02
2018-12-22T01:52:39.269Z,1.37
2018-12-22T01:58:34.271Z,1.32
2018-12-22T02:04:29.270Z,1.27
2018-12-22T02:10:24.309Z,1.79
2018-12-22T02:16:19.324Z,1.75
2018-12-22T02:22:14.286Z,1.53
2018-12-22T02:28:09.325Z,1.43
2018-12-22T02:34:04.305Z,1.49
2018-12-22T02:39:59.289Z,1.41
2018-12-22T02:45:54.429Z,1.8
2018-12-22T02:51:49.320Z,2.29
2018-12-22T02:57:44.341Z,2.14
2018-12-22T03:03:39.315Z,2.05
2018-12-22T03:09:34.311Z,1.33
2018-12-22T03:15:29.319Z,1.2
2018-12-22T03:21:24.321Z,1.7
2018-12-22T03:27:19.349Z,1.4
2018-12-22T03:33:14.384Z,1.62
2018-12-22T03:39:09.378Z,1.36
2018-12-22T03:45:04.349Z,1.33
2018-12-22T03:50:59.349Z,1.33
2018-12-22T03:56:54.351Z,1.53
2018-12-22T04:02:49.379Z,1.11
2018-12-22T04:08:44.381Z,1.43
2018-12-22T04:14:39.348Z,1.51
2018-12-22T04:20:34.352Z,1.22
2018-12-22T04:26:29.376Z,1.5
2018-12-22T04:32:24.375Z,1.72
2018-12-22T04:38:19.382Z,1.36
2018-12-22T04:44:14.361Z,1.79
2018-12-22T04:50:09.370Z,1.25
2018-12-22T04:56:04.399Z,1.25
2018-12-22T05:01:59.421Z,1.33
2018-12-22T05:07:54.388Z,1.64
2018-12-22T05:13:49.386Z,1.34
2018-12-22T05:19:44.395Z,1.58
2018-12-22T05:25:39.393Z,1.57
2018-12-22T05:31:34.385Z,1.48
2018-12-22T05:37:29.417Z,1.58
2018-12-22T05:43:24.394Z,1.47
2018-12-22T05:49:19.452Z,1.76
2018-12-22T05:55:14.400Z,1.94
2018-12-22T06:01:09.414Z,1.82
2018-12-22T06:07:04.465Z,2.35
2018-12-22T06:12:59.436Z,1.83
2018-12-22T06:18:54.415Z,1.75
2018-12-22T06:24:49.447Z,1.83
2018-12-22T06:30:44.431Z,1.64
2018-12-22T06:36:39.432Z,1.44
2018-12-22T06:42:34.465Z,2.21
2018-12-22T06:48:29.438Z,1.85
2018-12-22T06:54:24.431Z,1.6
2018-12-22T07:00:19.458Z,1.83
2018-12-22T07:06:14.449Z,1.68
2018-12-22T07:12:09.475Z,9.12
2018-12-22T07:18:04.456Z,5.7
2018-12-22T07:23:59.505Z,5.18
2018-12-22T07:29:54.504Z,1.83
2018-12-22T07:35:49.462Z,2.32
2018-12-22T07:41:44.488Z,1.81
2018-12-22T07:47:39.467Z,2.18
2018-12-22T07:53:34.504Z,2.53
2018-12-22T07:59:29.477Z,2.68
2018-12-22T08:05:24.486Z,2.23
2018-12-22T08:11:19.505Z,1.93
2018-12-22T08:17:14.517Z,2.07
2018-12-22T08:23:09.491Z,1.92
2018-12-22T08:29:04.502Z,2.1
2018-12-22T08:34:59.502Z,3.54
2018-12-22T08:40:54.494Z,2.89
2018-12-22T08:46:49.513Z,2.85
2018-12-22T08:52:44.519Z,2.66
2018-12-22T08:58:39.548Z,2.68
2018-12-22T09:04:34.548Z,4.52
2018-12-22T09:10:29.540Z,4.46
2018-12-22T09:16:24.553Z,4.79
2018-12-22T09:22:19.525Z,5
2018-12-22T09:28:14.540Z,12.32
2018-12-22T09:34:13.370Z,7.57
2018-12-22T09:40:04.555Z,6.59
2018-12-22T09:45:59.552Z,5.37
2018-12-22T09:51:54.553Z,5.75
2018-12-22T09:57:49.599Z,5.73
2018-12-22T10:03:44.542Z,6.48
2018-12-22T10:09:39.557Z,9.66
2018-12-22T10:15:34.598Z,6.81
2018-12-22T10:21:29.598Z,8.17
2018-12-22T10:27:24.563Z,7.03
2018-12-22T10:33:19.602Z,9.63
2018-12-22T10:39:14.583Z,8.68
2018-12-22T10:45:09.582Z,18
2018-12-22T10:51:04.583Z,9.16
2018-12-22T10:56:59.587Z,6.8
2018-12-22T11:02:54.609Z,16.88
2018-12-22T11:08:49.607Z,7.96
2018-12-22T11:14:44.625Z,10.96
2018-12-22T11:20:39.603Z,8.21
2018-12-22T11:26:34.630Z,7.94
2018-12-22T11:32:29.663Z,8.16
2018-12-22T11:38:24.700Z,7.7
2018-12-22T11:44:19.620Z,11.16
2018-12-22T11:50:14.615Z,15.89
2018-12-22T11:56:09.611Z,27.87
2018-12-22T12:02:09.432Z,7
2018-12-22T12:07:59.641Z,6.92
2018-12-22T12:13:54.617Z,6.58
2018-12-22T12:19:49.656Z,7.69
2018-12-22T12:25:44.633Z,7.01
2018-12-22T12:31:39.681Z,6.39
2018-12-22T12:37:34.643Z,6.49
2018-12-22T12:43:29.656Z,5.94
2018-12-22T12:49:24.678Z,7.15
2018-12-22T12:55:19.671Z,10.01
2018-12-22T13:01:14.649Z,11.79
2018-12-22T13:07:09.667Z,10
2018-12-22T13:13:04.670Z,9.92
2018-12-22T13:18:59.667Z,9.12
2018-12-22T13:24:54.655Z,11.03
2018-12-22T13:30:49.699Z,13.29
2018-12-22T13:36:44.694Z,10.19
2018-12-22T13:42:39.694Z,9.21
2018-12-22T13:48:34.915Z,11.35
2018-12-22T13:54:29.686Z,12.54
2018-12-22T14:00:24.717Z,11.35
2018-12-22T14:06:19.684Z,10.51
2018-12-22T14:12:14.709Z,11.43
2018-12-22T14:18:09.717Z,14.31
2018-12-22T14:24:04.722Z,15.05
2018-12-22T14:29:59.752Z,28.52
2018-12-22T14:35:54.707Z,12.83
2018-12-22T14:41:49.697Z,12.95
2018-12-22T14:47:44.729Z,16.67
2018-12-22T14:53:39.774Z,12.43
2018-12-22T14:59:34.745Z,12.57
2018-12-22T15:05:29.789Z,31.35
2018-12-22T15:11:24.759Z,21.55
2018-12-22T15:35:25.372Z,15.51
2018-12-22T15:41:20.387Z,17.25
2018-12-22T15:47:15.364Z,15.3
2018-12-22T15:53:10.370Z,15.83
2018-12-22T15:59:05.365Z,19.09
2018-12-22T16:05:00.371Z,12.01
2018-12-22T16:10:55.392Z,10.56
2018-12-22T16:16:50.430Z,11.54
2018-12-22T16:22:45.408Z,10.99
2018-12-22T16:28:40.384Z,15.99
2018-12-22T16:34:35.391Z,16.43
2018-12-22T16:40:30.448Z,14.29
2018-12-22T16:46:25.391Z,13.45
2018-12-22T16:52:20.401Z,15.32
2018-12-22T16:58:15.389Z,15.17
2018-12-22T17:04:10.403Z,13.4
2018-12-22T17:10:05.443Z,16.92
2018-12-22T17:16:00.441Z,16.64
2018-12-22T17:21:55.442Z,18.54
2018-12-22T17:27:50.413Z,17.6
2018-12-22T17:33:45.434Z,19.06
2018-12-22T17:39:40.430Z,18.89
2018-12-22T17:45:35.457Z,15.15
2018-12-22T17:51:30.422Z,17.17
2018-12-22T17:57:25.437Z,17.86
2018-12-22T18:03:27.327Z,22.53
2018-12-22T18:09:15.451Z,24.81
2018-12-22T18:15:10.464Z,24.2
2018-12-22T18:21:05.436Z,15.85
2018-12-22T18:27:00.438Z,17.7
2018-12-22T18:32:55.478Z,18
2018-12-22T18:38:50.459Z,17.75
2018-12-22T18:44:45.477Z,17.78
2018-12-22T18:50:40.465Z,18.12
2018-12-22T18:56:35.483Z,18.29
2018-12-22T19:02:30.461Z,18
2018-12-22T19:08:25.500Z,16.72
2018-12-22T19:14:20.558Z,15.16
2018-12-22T19:20:15.475Z,16.58
2018-12-22T19:26:10.472Z,18.18
2018-12-22T19:32:05.480Z,15.81
2018-12-22T19:38:00.486Z,15.78
2018-12-22T19:43:55.488Z,14.85
2018-12-22T19:49:50.499Z,15.32
2018-12-22T19:55:45.493Z,20.03
2018-12-22T20:01:40.496Z,23.34
2018-12-22T20:07:35.593Z,23.88
2018-12-22T20:13:30.489Z,28.45
2018-12-22T20:19:25.525Z,21.26
2018-12-22T20:25:20.534Z,20.07
2018-12-22T20:31:15.529Z,19.74
2018-12-22T20:37:10.548Z,18.23
2018-12-22T20:43:05.553Z,19.27
2018-12-22T20:49:00.555Z,20.12
2018-12-22T20:54:55.524Z,20.14
2018-12-22T21:00:50.565Z,19.72
2018-12-22T21:06:45.559Z,20.75
2018-12-22T21:12:40.601Z,21.77
2018-12-22T21:18:35.608Z,18.76
2018-12-22T21:24:30.624Z,19.07
2018-12-22T21:30:25.599Z,19.05
2018-12-22T21:36:20.567Z,17.22
2018-12-22T21:42:15.556Z,16.25
2018-12-22T21:48:10.566Z,15.06
2018-12-22T21:54:05.574Z,16.07
2018-12-22T22:00:00.573Z,15.05
2018-12-22T22:05:55.591Z,14.83
2018-12-22T22:11:50.581Z,15.21
2018-12-22T22:17:45.659Z,15.13
2018-12-22T22:23:40.618Z,14.78
2018-12-22T22:29:35.585Z,14.56
2018-12-22T22:35:30.611Z,16.27
2018-12-22T22:41:25.603Z,15.23
2018-12-22T22:47:20.619Z,16.15
2018-12-22T22:53:15.634Z,16.29
2018-12-22T22:59:10.671Z,19.26
2018-12-22T23:05:05.622Z,23.82
2018-12-22T23:11:00.600Z,23.11
2018-12-22T23:16:55.618Z,21.73
2018-12-22T23:22:50.652Z,21.06
2018-12-22T23:28:45.632Z,21.17
2018-12-22T23:34:40.656Z,20.47
2018-12-22T23:40:35.639Z,22.46
2018-12-22T23:46:30.661Z,27
2018-12-22T23:52:25.633Z,25.54
2018-12-22T23:58:20.649Z,26.68
